Bethel Regional Airport (0B1)
Bethel, ME
Field Elevation: 674
Lat: 44°25.51N  Long: 70°48.60W
CTAF/Unicom Freq: 122.9000
   
     For Weather-by-Phone, call 207-512-2516
Weather Advisories
2019-05-22   11:19 Z
Altimeter 30.13" Hg
Wind 350° @ 10 KT
Gusts 16 KT
Visibility 10 SM
Ceiling CLR
Temperature 8° C (46° F)
Dewpoint 1° C (34° F)
Relative Humidity 58%
Density Altitude --
Condensation Altitude 4,600 feet
Wind Chill: 5° C (41° F)
Wind and Runways
Indicated Runway = 32
Headwind = 9 kt
Crosswind = 5 kt
History
 
 
 
More Info
All DigiWx sites map
 
NOAA Forecast
 
Airport IQ 5010
(KBXM) Brunswick, ME
(39N) Princeton, NJ
 
about DigiWx
 
FAA Disclaimer: The data displayed is for advisory purposes only and is not to be used for flight planning or operations. For official data, please call 207-512-2516 to hear the current automated AWOS voice message.
  METAR 0B1 221119Z AUTO 35010G16KT 10 SM CLR 08/01 A3013